createdAt,value
2022-09-23T00:02:19.276Z,4.90
2022-09-23T00:04:46.824Z,4.90
2022-09-23T00:07:13.423Z,4.90
2022-09-23T00:09:40.018Z,4.90
2022-09-23T00:12:09.016Z,4.80
2022-09-23T00:14:37.082Z,4.80
2022-09-23T00:17:03.816Z,4.80
2022-09-23T00:19:30.508Z,4.90
2022-09-23T00:21:57.269Z,4.90
2022-09-23T00:24:23.917Z,4.80
2022-09-23T00:26:51.596Z,4.70
2022-09-23T00:29:18.874Z,4.80
2022-09-23T00:31:45.566Z,4.80
2022-09-23T00:34:12.202Z,4.70
2022-09-23T00:36:38.860Z,4.70
2022-09-23T00:39:05.689Z,4.70
2022-09-23T00:41:32.546Z,4.80
2022-09-23T00:44:00.170Z,4.70
2022-09-23T00:46:29.953Z,4.60
2022-09-23T00:48:58.306Z,4.70
2022-09-23T00:51:28.090Z,4.60
2022-09-23T00:53:54.987Z,4.70
2022-09-23T00:56:22.985Z,4.70
2022-09-23T00:58:50.317Z,4.50
2022-09-23T01:01:17.001Z,4.60
2022-09-23T01:03:44.952Z,4.50
2022-09-23T01:06:11.728Z,4.50
2022-09-23T01:08:38.906Z,4.70
2022-09-23T01:11:22.244Z,4.50
2022-09-23T01:14:01.216Z,4.50
2022-09-23T01:16:32.503Z,4.50
2022-09-23T01:19:02.109Z,4.40
2022-09-23T01:21:31.586Z,4.40
2022-09-23T01:24:07.859Z,4.40
2022-09-23T01:26:53.146Z,4.30
2022-09-23T01:29:23.794Z,4.30
2022-09-23T01:31:50.407Z,4.30
2022-09-23T01:34:35.448Z,4.30
2022-09-23T01:37:05.129Z,4.30
2022-09-23T01:39:37.025Z,4.30
2022-09-23T01:42:13.485Z,4.30
2022-09-23T01:44:48.150Z,4.30
2022-09-23T01:47:17.307Z,4.20
2022-09-23T01:49:49.331Z,4.30
2022-09-23T01:52:19.472Z,4.20
2022-09-23T01:54:50.682Z,4.20
2022-09-23T01:57:23.489Z,4.20
2022-09-23T01:59:55.847Z,4.10
2022-09-23T02:02:22.469Z,4.10
2022-09-23T02:04:54.141Z,4.10
2022-09-23T02:07:33.601Z,4.10
2022-09-23T02:10:06.852Z,4.00
2022-09-23T02:12:35.727Z,4.10
2022-09-23T02:15:08.591Z,4.10
2022-09-23T02:17:42.525Z,4.00
2022-09-23T02:20:10.554Z,4.00
2022-09-23T02:22:37.109Z,3.90
2022-09-23T02:25:03.913Z,3.90
2022-09-23T02:27:33.155Z,3.90
2022-09-23T02:30:04.635Z,3.90
2022-09-23T02:32:42.847Z,3.90
2022-09-23T02:35:10.133Z,3.90
2022-09-23T02:37:37.171Z,3.80
2022-09-23T02:40:13.001Z,3.80
2022-09-23T02:43:02.794Z,3.80
2022-09-23T02:45:29.530Z,3.70
2022-09-23T02:48:02.456Z,3.80
2022-09-23T02:50:30.975Z,3.70
2022-09-23T02:52:58.255Z,3.70
2022-09-23T02:55:26.636Z,3.60
2022-09-23T02:57:53.443Z,3.60
2022-09-23T03:00:20.499Z,3.50
2022-09-23T03:03:11.226Z,3.50
2022-09-23T03:05:43.857Z,3.50
2022-09-23T03:08:19.223Z,3.50
2022-09-23T03:11:05.716Z,3.50
2022-09-23T03:13:54.085Z,3.50
2022-09-23T03:16:29.599Z,3.50
2022-09-23T03:18:59.151Z,3.50
2022-09-23T03:21:48.804Z,3.50
2022-09-23T03:24:15.637Z,3.40
2022-09-23T03:26:45.061Z,3.30
2022-09-23T03:29:11.876Z,3.50
2022-09-23T03:31:42.598Z,3.40
2022-09-23T03:34:12.800Z,3.40
2022-09-23T03:36:56.611Z,3.30
2022-09-23T03:39:40.157Z,3.30
2022-09-23T03:42:16.953Z,3.30
2022-09-23T03:44:45.333Z,3.30
2022-09-23T03:47:13.793Z,3.30
2022-09-23T03:49:42.252Z,3.20
2022-09-23T03:52:08.833Z,3.30
2022-09-23T03:54:35.474Z,3.30
2022-09-23T03:57:03.015Z,3.30
2022-09-23T03:59:33.165Z,3.20
2022-09-23T04:02:00.210Z,3.20
2022-09-23T04:04:27.666Z,3.20
2022-09-23T04:06:55.182Z,3.20
2022-09-23T04:09:22.580Z,3.10
2022-09-23T04:11:52.778Z,3.10
2022-09-23T04:14:19.954Z,3.00
2022-09-23T04:16:47.499Z,3.00
2022-09-23T04:19:14.679Z,3.10
2022-09-23T04:21:42.104Z,3.10
2022-09-23T04:24:09.465Z,3.10
2022-09-23T04:26:36.963Z,3.10
2022-09-23T04:29:04.950Z,3.10
2022-09-23T04:31:32.380Z,3.10
2022-09-23T04:33:59.184Z,3.00
2022-09-23T04:36:25.959Z,3.10
2022-09-23T04:38:52.687Z,3.00
2022-09-23T04:41:19.661Z,3.00
2022-09-23T04:43:46.441Z,3.00
2022-09-23T04:46:14.451Z,2.90
2022-09-23T04:48:41.734Z,2.90
2022-09-23T04:51:09.542Z,3.00
2022-09-23T04:53:37.049Z,3.00
2022-09-23T04:56:05.202Z,3.00
2022-09-23T04:58:32.583Z,3.00
2022-09-23T05:01:03.074Z,3.00
2022-09-23T05:03:35.697Z,3.00
2022-09-23T05:06:02.315Z,3.10
2022-09-23T05:08:29.592Z,3.10
2022-09-23T05:10:56.895Z,3.10
2022-09-23T05:13:23.604Z,3.10
2022-09-23T05:15:50.240Z,3.10
2022-09-23T05:18:20.679Z,3.10
2022-09-23T05:20:52.606Z,3.10
2022-09-23T05:23:19.672Z,3.20
2022-09-23T05:25:46.253Z,3.30
2022-09-23T05:28:13.001Z,3.40
2022-09-23T05:30:39.624Z,3.40
2022-09-23T05:33:06.198Z,3.50
2022-09-23T05:35:32.848Z,3.60
2022-09-23T05:37:59.673Z,3.70
2022-09-23T05:40:26.374Z,3.80
2022-09-23T05:42:53.093Z,3.90
2022-09-23T05:45:19.800Z,4.10
2022-09-23T05:47:46.398Z,4.40
2022-09-23T05:50:13.110Z,4.70
2022-09-23T05:52:39.748Z,4.90
2022-09-23T05:55:06.628Z,5.10
2022-09-23T05:57:33.334Z,5.40
2022-09-23T06:00:00.043Z,7.30
2022-09-23T06:02:26.780Z,10.00
2022-09-23T06:04:53.477Z,12.50
2022-09-23T06:07:20.197Z,14.10
2022-09-23T06:09:46.829Z,15.20
2022-09-23T06:12:14.185Z,16.00
2022-09-23T06:14:40.811Z,17.00
2022-09-23T06:17:07.446Z,17.40
2022-09-23T06:19:34.062Z,18.20
2022-09-23T06:22:00.833Z,18.40
2022-09-23T06:24:31.359Z,18.90
2022-09-23T06:26:58.471Z,19.20
2022-09-23T06:29:25.140Z,19.80
2022-09-23T06:31:51.906Z,19.90
2022-09-23T06:34:19.221Z,20.10
2022-09-23T06:36:46.812Z,20.70
2022-09-23T06:39:14.421Z,21.10
2022-09-23T06:41:41.179Z,21.70
2022-09-23T06:44:07.882Z,21.70
2022-09-23T06:46:36.777Z,21.40
2022-09-23T06:49:03.628Z,21.50
2022-09-23T06:51:30.288Z,21.50
2022-09-23T06:53:56.933Z,21.30
2022-09-23T06:56:23.808Z,21.80
2022-09-23T06:58:51.693Z,22.40
2022-09-23T07:01:19.846Z,22.10
2022-09-23T07:03:48.243Z,22.20
2022-09-23T07:06:15.316Z,22.70
2022-09-23T07:08:43.184Z,24.00
2022-09-23T07:11:13.415Z,25.10
2022-09-23T07:13:41.199Z,25.10
2022-09-23T07:16:08.531Z,24.60
2022-09-23T07:18:37.349Z,24.30
2022-09-23T07:21:07.132Z,23.90
2022-09-23T07:23:33.949Z,24.60
2022-09-23T07:26:00.935Z,24.10
2022-09-23T07:28:29.087Z,23.20
2022-09-23T07:31:00.447Z,22.10
2022-09-23T07:33:32.996Z,21.40
2022-09-23T07:36:04.304Z,21.70
2022-09-23T07:38:31.483Z,22.90
2022-09-23T07:41:05.409Z,23.80
2022-09-23T07:43:32.805Z,24.10
2022-09-23T07:46:00.414Z,24.50
2022-09-23T07:48:30.692Z,24.50
2022-09-23T07:51:00.270Z,24.60
2022-09-23T07:53:27.337Z,25.20
2022-09-23T07:55:55.142Z,24.90
2022-09-23T07:58:22.303Z,24.80
2022-09-23T08:00:51.389Z,26.20
2022-09-23T08:03:18.105Z,25.90
2022-09-23T08:05:45.912Z,25.40
2022-09-23T08:08:14.122Z,24.70
2022-09-23T08:10:40.875Z,24.40
2022-09-23T08:13:07.543Z,25.00
2022-09-23T08:15:34.369Z,25.20
2022-09-23T08:18:01.812Z,25.10
2022-09-23T08:20:47.813Z,25.20
2022-09-23T08:23:16.166Z,24.90
2022-09-23T08:25:46.848Z,25.00
2022-09-23T08:28:18.632Z,24.70
2022-09-23T08:30:48.077Z,24.80
2022-09-23T08:33:17.484Z,24.40
2022-09-23T08:35:46.453Z,24.60
2022-09-23T08:38:13.091Z,23.90
2022-09-23T08:40:42.257Z,22.60
2022-09-23T08:43:15.739Z,22.50
2022-09-23T08:45:43.464Z,22.40
2022-09-23T08:48:15.734Z,21.80
2022-09-23T08:50:44.245Z,21.50
2022-09-23T08:53:19.829Z,21.40
2022-09-23T08:55:47.825Z,20.60
2022-09-23T08:58:37.253Z,20.20
2022-09-23T09:01:16.405Z,20.50
2022-09-23T09:03:46.378Z,20.10
2022-09-23T09:06:17.219Z,20.10
2022-09-23T09:08:44.508Z,20.50
2022-09-23T09:11:12.239Z,21.40
2022-09-23T09:13:48.885Z,21.80
2022-09-23T09:16:42.151Z,21.60
2022-09-23T09:19:31.209Z,22.30
2022-09-23T09:21:57.912Z,22.60
2022-09-23T09:24:29.202Z,22.70
2022-09-23T09:26:55.884Z,23.20
2022-09-23T09:29:36.228Z,23.40
2022-09-23T09:32:13.976Z,23.40
2022-09-23T09:34:47.264Z,23.60
2022-09-23T09:37:33.610Z,23.70
2022-09-23T09:40:00.308Z,23.80
2022-09-23T09:42:39.613Z,24.00
2022-09-23T09:45:30.049Z,24.40
2022-09-23T09:48:05.840Z,24.70
2022-09-23T09:50:49.114Z,24.80
2022-09-23T09:53:26.501Z,24.90
2022-09-23T09:56:04.371Z,25.00
2022-09-23T09:58:43.845Z,24.90
2022-09-23T10:01:20.674Z,25.10
2022-09-23T10:03:48.709Z,25.00
2022-09-23T10:06:17.922Z,24.90
2022-09-23T10:08:49.304Z,24.10
2022-09-23T10:11:17.415Z,24.20
2022-09-23T10:14:02.869Z,24.80
2022-09-23T10:16:31.675Z,25.20
2022-09-23T10:19:11.275Z,25.10
2022-09-23T10:21:38.297Z,25.00
2022-09-23T10:24:06.274Z,25.60
2022-09-23T10:26:34.469Z,25.70
2022-09-23T10:29:02.852Z,25.70
2022-09-23T10:31:32.064Z,25.70
2022-09-23T10:34:02.511Z,25.50
2022-09-23T10:36:30.577Z,25.60
2022-09-23T10:39:18.631Z,26.80
2022-09-23T10:42:28.682Z,27.70
2022-09-23T10:45:14.185Z,28.20
2022-09-23T10:47:45.114Z,27.80
2022-09-23T10:50:17.240Z,27.40
2022-09-23T10:52:43.794Z,27.10
2022-09-23T10:55:22.755Z,26.20
2022-09-23T10:57:49.393Z,26.60
2022-09-23T11:00:16.086Z,26.70
2022-09-23T11:03:01.120Z,26.70
2022-09-23T11:05:55.326Z,26.20
2022-09-23T11:08:27.471Z,25.90
2022-09-23T11:11:12.875Z,26.00
2022-09-23T11:13:54.953Z,26.60
2022-09-23T11:16:40.373Z,25.10
2022-09-23T11:19:07.094Z,24.90
2022-09-23T11:21:45.546Z,25.20
2022-09-23T11:24:31.230Z,24.40
2022-09-23T11:27:03.833Z,24.10
2022-09-23T11:29:33.833Z,24.30
2022-09-23T11:32:07.011Z,24.40
2022-09-23T11:34:42.853Z,24.60
2022-09-23T11:37:13.984Z,23.90
2022-09-23T11:39:54.943Z,23.50
2022-09-23T11:42:31.029Z,23.70
2022-09-23T11:45:08.650Z,23.30
2022-09-23T11:47:39.745Z,23.30
2022-09-23T11:50:17.804Z,23.10
2022-09-23T11:52:47.418Z,22.80
2022-09-23T11:55:27.112Z,22.60
2022-09-23T11:57:53.821Z,22.60
2022-09-23T12:00:24.244Z,22.70
2022-09-23T12:03:03.599Z,22.70
2022-09-23T12:05:35.133Z,22.80
2022-09-23T12:08:06.945Z,22.60
2022-09-23T12:10:41.619Z,22.50
2022-09-23T12:13:24.438Z,22.50
2022-09-23T12:15:58.290Z,22.70
2022-09-23T12:18:47.966Z,22.70
2022-09-23T12:21:46.227Z,22.50
2022-09-23T12:24:26.889Z,22.40
2022-09-23T12:26:57.168Z,22.50
2022-09-23T12:29:25.509Z,22.20
2022-09-23T12:31:52.642Z,22.20
2022-09-23T12:34:28.782Z,22.40
2022-09-23T12:37:02.039Z,22.40
2022-09-23T12:39:32.861Z,22.70
2022-09-23T12:42:10.845Z,23.00
2022-09-23T12:44:40.708Z,23.10
2022-09-23T12:47:25.264Z,22.80
2022-09-23T12:49:53.247Z,22.70
2022-09-23T12:52:19.864Z,22.50
2022-09-23T12:54:47.570Z,22.60
2022-09-23T12:57:33.049Z,22.60
2022-09-23T13:00:13.076Z,22.30
2022-09-23T13:03:10.534Z,22.30
2022-09-23T13:06:19.260Z,22.50
2022-09-23T13:08:47.327Z,22.00
2022-09-23T13:11:32.775Z,22.00
2022-09-23T13:14:01.929Z,21.80
2022-09-23T13:16:34.069Z,21.80
2022-09-23T13:19:01.682Z,21.80
2022-09-23T13:21:43.704Z,22.00
2022-09-23T13:24:13.108Z,22.10
2022-09-23T13:26:45.652Z,22.20
2022-09-23T13:29:16.814Z,22.10
2022-09-23T13:31:44.644Z,22.00
2022-09-23T13:34:13.477Z,22.10
2022-09-23T13:36:44.372Z,22.00
2022-09-23T13:39:15.302Z,22.20
2022-09-23T13:41:43.125Z,22.00
2022-09-23T13:44:14.993Z,22.00
2022-09-23T13:46:45.622Z,21.70
2022-09-23T13:49:24.649Z,21.90
2022-09-23T13:51:55.168Z,22.00
2022-09-23T13:54:44.563Z,22.00
2022-09-23T13:57:26.492Z,21.90
2022-09-23T13:59:53.624Z,21.70
2022-09-23T14:02:20.374Z,21.40
2022-09-23T14:04:47.179Z,21.30
2022-09-23T14:07:14.872Z,21.40
2022-09-23T14:09:42.974Z,21.40
2022-09-23T14:12:10.411Z,21.40
2022-09-23T14:14:39.400Z,21.40
2022-09-23T14:17:07.893Z,21.30
2022-09-23T14:19:35.886Z,21.20
2022-09-23T14:22:03.184Z,21.20
2022-09-23T14:24:29.950Z,21.20
2022-09-23T14:26:58.883Z,20.80
2022-09-23T14:29:27.035Z,20.80
2022-09-23T14:31:58.575Z,21.00
2022-09-23T14:34:43.983Z,21.20
2022-09-23T14:37:39.950Z,21.30
2022-09-23T14:40:12.309Z,21.30
2022-09-23T14:42:41.177Z,21.40
2022-09-23T14:45:10.315Z,21.50
2022-09-23T14:47:37.094Z,21.60
2022-09-23T14:50:22.515Z,21.50
2022-09-23T14:52:50.061Z,21.30
2022-09-23T14:55:17.591Z,21.40
2022-09-23T14:57:45.363Z,21.50
2022-09-23T15:00:18.756Z,21.50
2022-09-23T15:02:57.118Z,21.40
2022-09-23T15:05:31.810Z,21.20
2022-09-23T15:08:00.810Z,21.20
2022-09-23T15:10:28.739Z,20.80
2022-09-23T15:13:02.686Z,20.70
2022-09-23T15:15:29.460Z,20.60
2022-09-23T15:18:02.417Z,20.70
2022-09-23T15:20:29.250Z,20.70
2022-09-23T15:22:56.354Z,20.70
2022-09-23T15:25:33.700Z,20.60
2022-09-23T15:28:00.331Z,20.60
2022-09-23T15:30:27.162Z,20.50
2022-09-23T15:32:54.043Z,20.10
2022-09-23T15:35:22.381Z,20.00
2022-09-23T15:37:50.104Z,19.90
2022-09-23T15:40:30.478Z,19.90
2022-09-23T15:43:01.357Z,19.90
2022-09-23T15:45:30.187Z,19.90
2022-09-23T15:47:59.591Z,19.90
2022-09-23T15:50:27.159Z,19.90
2022-09-23T15:52:53.971Z,20.00
2022-09-23T15:55:23.746Z,20.00
2022-09-23T15:57:50.609Z,20.00
2022-09-23T16:00:17.571Z,19.90
2022-09-23T16:02:45.602Z,19.80
2022-09-23T16:05:18.725Z,19.70
2022-09-23T16:07:48.351Z,19.60
2022-09-23T16:10:15.521Z,19.50
2022-09-23T16:12:42.445Z,19.40
2022-09-23T16:15:13.820Z,19.30
2022-09-23T16:17:40.548Z,19.20
2022-09-23T16:20:07.355Z,19.00
2022-09-23T16:22:34.121Z,18.90
2022-09-23T16:25:00.861Z,18.80
2022-09-23T16:27:27.436Z,18.70
2022-09-23T16:29:54.273Z,18.40
2022-09-23T16:32:22.329Z,18.30
2022-09-23T16:34:48.989Z,18.20
2022-09-23T16:37:19.510Z,18.10
2022-09-23T16:39:48.046Z,17.90
2022-09-23T16:42:14.630Z,17.80
2022-09-23T16:44:41.548Z,17.60
2022-09-23T16:47:08.661Z,17.50
2022-09-23T16:49:35.301Z,17.40
2022-09-23T16:52:01.962Z,17.20
2022-09-23T16:54:28.571Z,17.00
2022-09-23T16:56:55.186Z,16.80
2022-09-23T16:59:21.821Z,16.70
2022-09-23T17:02:07.174Z,16.50
2022-09-23T17:04:33.846Z,16.30
2022-09-23T17:07:00.536Z,16.10
2022-09-23T17:09:28.522Z,15.90
2022-09-23T17:11:58.729Z,15.70
2022-09-23T17:14:25.384Z,15.50
2022-09-23T17:16:51.986Z,15.20
2022-09-23T17:19:18.599Z,15.20
2022-09-23T17:21:45.232Z,15.00
2022-09-23T17:24:11.891Z,14.90
2022-09-23T17:26:38.561Z,14.70
2022-09-23T17:29:05.624Z,14.60
2022-09-23T17:31:32.447Z,14.40
2022-09-23T17:33:59.131Z,14.30
2022-09-23T17:36:25.833Z,14.20
2022-09-23T17:38:53.563Z,14.10
2022-09-23T17:41:20.681Z,14.00
2022-09-23T17:43:53.694Z,14.00
2022-09-23T17:46:20.327Z,13.90
2022-09-23T17:48:47.085Z,13.80
2022-09-23T17:51:18.824Z,13.70
2022-09-23T17:53:46.536Z,13.60
2022-09-23T17:56:14.683Z,13.60
2022-09-23T17:58:41.356Z,13.60
2022-09-23T18:01:09.476Z,13.50
2022-09-23T18:03:36.255Z,13.50
2022-09-23T18:06:06.995Z,13.40
2022-09-23T18:08:33.761Z,13.40
2022-09-23T18:11:00.601Z,13.20
2022-09-23T18:13:27.281Z,13.20
2022-09-23T18:15:54.062Z,13.10
2022-09-23T18:18:20.723Z,13.10
2022-09-23T18:20:47.433Z,13.10
2022-09-23T18:23:14.117Z,13.00
2022-09-23T18:25:40.808Z,13.00
2022-09-23T18:28:07.590Z,12.90
2022-09-23T18:30:34.282Z,12.90
2022-09-23T18:33:01.664Z,12.80
2022-09-23T18:35:28.552Z,12.70
2022-09-23T18:37:56.072Z,12.70
2022-09-23T18:40:22.923Z,12.70
2022-09-23T18:42:50.429Z,12.70
2022-09-23T18:45:17.182Z,12.60
2022-09-23T18:48:02.692Z,12.50
2022-09-23T18:50:43.140Z,12.40
2022-09-23T18:53:10.380Z,12.40
2022-09-23T18:55:37.282Z,12.30
2022-09-23T18:58:04.465Z,12.30
2022-09-23T19:00:31.230Z,12.20
2022-09-23T19:02:57.931Z,12.20
2022-09-23T19:05:24.752Z,12.10
2022-09-23T19:07:51.459Z,12.10
2022-09-23T19:10:19.205Z,12.00
2022-09-23T19:12:46.703Z,12.10
2022-09-23T19:15:14.244Z,11.90
2022-09-23T19:17:40.929Z,11.90
2022-09-23T19:20:07.972Z,11.90
2022-09-23T19:22:34.950Z,11.90
2022-09-23T19:25:01.727Z,11.90
2022-09-23T19:27:28.722Z,12.00
2022-09-23T19:29:55.759Z,11.90
2022-09-23T19:32:24.508Z,11.90
2022-09-23T19:34:51.307Z,11.90
2022-09-23T19:37:18.119Z,11.90
2022-09-23T19:39:45.323Z,11.80
2022-09-23T19:42:12.792Z,11.80
2022-09-23T19:44:41.073Z,11.80
2022-09-23T19:47:08.201Z,11.80
2022-09-23T19:49:35.612Z,11.70
2022-09-23T19:52:02.440Z,11.70
2022-09-23T19:54:29.189Z,11.70
2022-09-23T19:56:55.941Z,11.80
2022-09-23T19:59:22.782Z,11.80
2022-09-23T20:01:49.696Z,11.80
2022-09-23T20:04:16.926Z,11.70
2022-09-23T20:06:46.915Z,11.70
2022-09-23T20:09:13.748Z,11.60
2022-09-23T20:11:43.024Z,11.60
2022-09-23T20:14:10.413Z,11.50
2022-09-23T20:16:37.490Z,11.50
2022-09-23T20:19:05.686Z,11.50
2022-09-23T20:21:33.840Z,11.50
2022-09-23T20:24:04.750Z,11.40
2022-09-23T20:26:50.242Z,11.40
2022-09-23T20:29:17.015Z,11.40
2022-09-23T20:31:44.691Z,11.30
2022-09-23T20:34:12.367Z,11.30
2022-09-23T20:36:42.101Z,11.20
2022-09-23T20:39:09.791Z,11.10
2022-09-23T20:41:39.920Z,11.10
2022-09-23T20:44:12.449Z,11.10
2022-09-23T20:46:45.274Z,11.10
2022-09-23T20:49:14.664Z,11.10
2022-09-23T20:51:41.360Z,11.00
2022-09-23T20:54:08.252Z,11.00
2022-09-23T20:56:34.994Z,11.00
2022-09-23T20:59:02.731Z,11.00
2022-09-23T21:01:32.151Z,10.90
2022-09-23T21:03:58.912Z,10.90
2022-09-23T21:06:26.177Z,10.90
2022-09-23T21:08:53.555Z,10.90
2022-09-23T21:11:23.079Z,10.90
2022-09-23T21:13:50.942Z,10.90
2022-09-23T21:16:19.110Z,11.00
2022-09-23T21:18:46.825Z,11.00
2022-09-23T21:21:14.377Z,10.90
2022-09-23T21:23:41.861Z,10.90
2022-09-23T21:26:09.539Z,10.90
2022-09-23T21:28:39.223Z,10.90
2022-09-23T21:31:10.743Z,10.90
2022-09-23T21:33:37.742Z,10.90
2022-09-23T21:36:05.703Z,11.00
2022-09-23T21:38:35.963Z,10.90
2022-09-23T21:41:04.002Z,10.90
2022-09-23T21:43:33.321Z,10.90
2022-09-23T21:46:04.797Z,10.90
2022-09-23T21:48:39.203Z,10.90
2022-09-23T21:51:08.286Z,10.80
2022-09-23T21:53:36.910Z,10.80
2022-09-23T21:56:09.880Z,10.80
2022-09-23T21:58:37.531Z,10.70
2022-09-23T22:01:08.715Z,10.70
2022-09-23T22:03:35.578Z,10.70
2022-09-23T22:06:09.562Z,10.70
2022-09-23T22:08:38.838Z,10.60
2022-09-23T22:11:31.682Z,10.60
2022-09-23T22:13:58.964Z,10.60
2022-09-23T22:16:26.242Z,10.60
2022-09-23T22:18:55.319Z,10.60
2022-09-23T22:21:23.130Z,10.60
2022-09-23T22:23:55.199Z,10.60
2022-09-23T22:26:21.964Z,10.60
2022-09-23T22:29:07.390Z,10.50
2022-09-23T22:31:53.112Z,10.50
2022-09-23T22:34:49.210Z,10.50
2022-09-23T22:37:20.835Z,10.40
2022-09-23T22:39:47.475Z,10.50
2022-09-23T22:42:14.442Z,10.50
2022-09-23T22:44:42.680Z,10.50
2022-09-23T22:47:09.886Z,10.50
2022-09-23T22:49:36.695Z,10.50
2022-09-23T22:52:05.685Z,10.40
2022-09-23T22:54:36.472Z,10.40
2022-09-23T22:57:07.121Z,10.30
2022-09-23T22:59:33.909Z,10.30
2022-09-23T23:02:02.326Z,10.30
2022-09-23T23:04:36.387Z,10.30
2022-09-23T23:07:03.111Z,10.40
2022-09-23T23:09:30.958Z,10.40
2022-09-23T23:12:01.632Z,10.40
2022-09-23T23:14:28.207Z,10.40
2022-09-23T23:16:55.100Z,10.40
2022-09-23T23:19:24.368Z,10.40
2022-09-23T23:21:53.746Z,10.30
2022-09-23T23:24:21.573Z,10.20
2022-09-23T23:26:48.309Z,10.20
2022-09-23T23:29:15.699Z,10.10
2022-09-23T23:31:42.651Z,10.10
2022-09-23T23:34:21.176Z,10.10
2022-09-23T23:36:55.630Z,10.10
2022-09-23T23:39:26.079Z,10.10
2022-09-23T23:41:56.270Z,10.10
2022-09-23T23:44:23.907Z,10.10
2022-09-23T23:46:51.141Z,10.10
2022-09-23T23:49:17.946Z,10.10
2022-09-23T23:51:44.863Z,10.00
2022-09-23T23:54:11.952Z,10.10
2022-09-23T23:56:38.678Z,10.00
2022-09-23T23:59:05.452Z,10.00
